createdAt,value
2023-10-12T00:01:24.952Z,98.54
2023-10-12T00:04:06.942Z,98.17
2023-10-12T00:06:37.667Z,97.90
2023-10-12T00:09:17.467Z,97.73
2023-10-12T00:11:57.860Z,98.25
2023-10-12T00:14:32.587Z,97.35
2023-10-12T00:17:00.129Z,97.86
2023-10-12T00:19:27.456Z,98.06
2023-10-12T00:22:00.185Z,97.92
2023-10-12T00:24:31.325Z,97.53
2023-10-12T00:26:58.807Z,97.93
2023-10-12T00:29:25.839Z,98.08
2023-10-12T00:31:56.250Z,97.11
2023-10-12T00:34:24.064Z,97.48
2023-10-12T00:36:53.071Z,97.29
2023-10-12T00:39:22.602Z,96.66
2023-10-12T00:41:54.592Z,96.91
2023-10-12T00:44:27.228Z,96.26
2023-10-12T00:46:56.744Z,96.85
2023-10-12T00:49:27.251Z,97.05
2023-10-12T00:52:08.137Z,96.18
2023-10-12T00:54:38.474Z,96.00
2023-10-12T00:57:09.887Z,97.15
2023-10-12T00:59:40.103Z,96.80
2023-10-12T01:02:17.544Z,96.28
2023-10-12T01:04:54.076Z,96.42
2023-10-12T01:07:25.746Z,96.78
2023-10-12T01:10:05.681Z,96.79
2023-10-12T01:12:33.588Z,96.34
2023-10-12T01:15:09.893Z,96.67
2023-10-12T01:17:36.788Z,96.37
2023-10-12T01:20:17.761Z,96.65
2023-10-12T01:22:44.775Z,96.13
2023-10-12T01:25:20.167Z,96.47
2023-10-12T01:27:48.130Z,96.78
2023-10-12T01:30:18.159Z,97.10
2023-10-12T01:32:44.830Z,97.96
2023-10-12T01:35:14.335Z,97.30
2023-10-12T01:37:56.433Z,96.98
2023-10-12T01:40:25.543Z,97.14
2023-10-12T01:42:52.283Z,96.50
2023-10-12T01:45:20.399Z,96.45
2023-10-12T01:47:56.377Z,97.21
2023-10-12T01:50:27.623Z,96.80
2023-10-12T01:52:57.012Z,97.13
2023-10-12T01:55:29.697Z,96.77
2023-10-12T01:57:57.599Z,97.00
2023-10-12T02:00:44.613Z,97.04
2023-10-12T02:03:18.867Z,97.21
2023-10-12T02:06:00.494Z,97.01
2023-10-12T02:08:33.311Z,97.59
2023-10-12T02:11:18.944Z,98.02
2023-10-12T02:13:51.538Z,98.79
2023-10-12T02:16:31.374Z,98.93
2023-10-12T02:19:00.086Z,98.17
2023-10-12T02:21:27.086Z,99.01
2023-10-12T02:23:54.077Z,99.30
2023-10-12T02:26:40.470Z,98.35
2023-10-12T02:29:08.949Z,98.66
2023-10-12T02:31:40.333Z,98.29
2023-10-12T02:34:12.903Z,97.78
2023-10-12T02:36:39.673Z,97.91
2023-10-12T02:39:15.792Z,97.68
2023-10-12T02:41:50.444Z,97.50
2023-10-12T02:44:19.518Z,98.03
2023-10-12T02:47:04.966Z,98.20
2023-10-12T02:49:38.196Z,98.68
2023-10-12T02:52:08.790Z,98.54
2023-10-12T02:54:50.111Z,98.96
2023-10-12T02:57:22.068Z,98.54
2023-10-12T02:59:57.684Z,98.12
2023-10-12T03:02:32.739Z,97.75
2023-10-12T03:05:01.763Z,98.51
2023-10-12T03:07:28.869Z,98.24
2023-10-12T03:10:00.273Z,98.56
2023-10-12T03:12:33.056Z,98.45
2023-10-12T03:15:01.785Z,98.54
2023-10-12T03:17:28.952Z,98.53
2023-10-12T03:19:56.172Z,98.55
2023-10-12T03:22:35.549Z,99.10
2023-10-12T03:25:20.310Z,98.63
2023-10-12T03:27:51.739Z,99.41
2023-10-12T03:30:18.959Z,99.53
2023-10-12T03:32:45.544Z,99.46
2023-10-12T03:35:14.078Z,100.00
2023-10-12T03:37:54.209Z,100.00
2023-10-12T03:40:40.451Z,100.00
2023-10-12T03:43:25.500Z,100.00
2023-10-12T03:46:17.148Z,100.00
2023-10-12T03:48:49.556Z,99.39
2023-10-12T03:51:16.600Z,99.78
2023-10-12T03:54:04.410Z,100.00
2023-10-12T03:56:39.138Z,100.00
2023-10-12T03:59:08.985Z,100.00
2023-10-12T04:01:41.300Z,99.82
2023-10-12T04:04:31.397Z,99.59
2023-10-12T04:07:00.931Z,100.00
2023-10-12T04:09:52.143Z,100.00
2023-10-12T04:12:20.029Z,100.00
2023-10-12T04:14:53.862Z,100.00
2023-10-12T04:17:26.857Z,100.00
2023-10-12T04:20:06.282Z,100.00
2023-10-12T04:22:46.630Z,100.00
2023-10-12T04:25:14.002Z,100.00
2023-10-12T04:27:50.919Z,100.00
2023-10-12T04:30:32.817Z,100.00
2023-10-12T04:33:18.297Z,100.00
2023-10-12T04:35:50.954Z,100.00
2023-10-12T04:38:38.348Z,100.00
2023-10-12T04:41:13.994Z,100.00
2023-10-12T04:43:40.953Z,100.00
2023-10-12T04:46:13.422Z,100.00
2023-10-12T04:48:47.019Z,100.00
2023-10-12T04:51:19.249Z,100.00
2023-10-12T04:54:06.251Z,100.00
2023-10-12T04:56:38.676Z,100.00
2023-10-12T04:59:20.144Z,100.00
2023-10-12T05:02:05.165Z,100.00
2023-10-12T05:04:44.177Z,100.00
2023-10-12T05:07:10.703Z,100.00
2023-10-12T05:09:40.190Z,100.00
2023-10-12T05:12:07.145Z,100.00
2023-10-12T05:14:34.343Z,100.00
2023-10-12T05:17:00.771Z,100.00
2023-10-12T05:19:27.518Z,100.00
2023-10-12T05:21:54.868Z,100.00
2023-10-12T05:24:24.537Z,100.00
2023-10-12T05:26:57.967Z,100.00
2023-10-12T05:29:24.911Z,100.00
2023-10-12T05:32:06.749Z,100.00
2023-10-12T05:34:41.138Z,100.00
2023-10-12T05:37:17.991Z,100.00
2023-10-12T05:39:47.452Z,100.00
2023-10-12T05:42:15.165Z,100.00
2023-10-12T05:44:45.287Z,100.00
2023-10-12T05:47:15.204Z,100.00
2023-10-12T05:49:42.189Z,100.00
2023-10-12T05:52:09.037Z,100.00
2023-10-12T05:54:41.195Z,100.00
2023-10-12T05:57:20.026Z,100.00
2023-10-12T05:59:47.459Z,100.00
2023-10-12T06:02:19.979Z,100.00
2023-10-12T06:04:47.810Z,100.00
2023-10-12T06:07:14.878Z,100.00
2023-10-12T06:09:41.543Z,100.00
2023-10-12T06:12:09.641Z,100.00
2023-10-12T06:14:38.193Z,100.00
2023-10-12T06:17:06.186Z,100.00
2023-10-12T06:19:37.196Z,100.00
2023-10-12T06:22:21.102Z,100.00
2023-10-12T06:24:53.054Z,100.00
2023-10-12T06:27:19.682Z,100.00
2023-10-12T06:29:47.759Z,100.00
2023-10-12T06:32:20.089Z,100.00
2023-10-12T06:35:10.581Z,100.00
2023-10-12T06:37:56.207Z,100.00
2023-10-12T06:40:24.821Z,100.00
2023-10-12T06:43:10.635Z,100.00
2023-10-12T06:45:50.365Z,100.00
2023-10-12T06:48:29.464Z,100.00
2023-10-12T06:51:04.655Z,100.00
2023-10-12T06:53:36.033Z,100.00
2023-10-12T06:56:24.803Z,100.00
2023-10-12T06:59:11.455Z,100.00
2023-10-12T07:01:51.805Z,100.00
2023-10-12T07:04:30.849Z,100.00
2023-10-12T07:06:58.205Z,100.00
2023-10-12T07:09:41.807Z,100.00
2023-10-12T07:12:13.142Z,100.00
2023-10-12T07:14:46.892Z,100.00
2023-10-12T07:17:14.943Z,100.00
2023-10-12T07:19:46.785Z,100.00
2023-10-12T07:22:15.845Z,100.00
2023-10-12T07:24:42.951Z,100.00
2023-10-12T07:27:18.420Z,100.00
2023-10-12T07:29:44.918Z,100.00
2023-10-12T07:32:32.431Z,100.00
2023-10-12T07:35:07.485Z,100.00
2023-10-12T07:37:34.351Z,100.00
2023-10-12T07:40:18.190Z,100.00
2023-10-12T07:42:48.568Z,100.00
2023-10-12T07:45:16.954Z,100.00
2023-10-12T07:47:46.663Z,100.00
2023-10-12T07:50:15.192Z,100.00
2023-10-12T07:52:44.622Z,100.00
2023-10-12T07:55:12.804Z,100.00
2023-10-12T07:57:40.039Z,100.00
2023-10-12T08:00:10.520Z,100.00
2023-10-12T08:02:46.778Z,100.00
2023-10-12T08:05:24.505Z,100.00
2023-10-12T08:08:04.502Z,100.00
2023-10-12T08:10:42.151Z,100.00
2023-10-12T08:13:25.233Z,100.00
2023-10-12T08:15:53.825Z,100.00
2023-10-12T08:18:42.649Z,100.00
2023-10-12T08:21:18.871Z,100.00
2023-10-12T08:23:50.781Z,100.00
2023-10-12T08:26:35.821Z,100.00
2023-10-12T08:29:32.210Z,100.00
2023-10-12T08:32:05.543Z,100.00
2023-10-12T08:34:38.814Z,100.00
2023-10-12T08:37:10.634Z,100.00
2023-10-12T08:39:47.163Z,100.00
2023-10-12T08:42:20.530Z,100.00
2023-10-12T08:44:51.422Z,100.00
2023-10-12T08:47:31.041Z,100.00
2023-10-12T08:50:01.878Z,100.00
2023-10-12T08:52:31.293Z,100.00
2023-10-12T08:55:05.241Z,100.00
2023-10-12T08:58:01.997Z,100.00
2023-10-12T09:00:35.867Z,100.00
2023-10-12T09:03:06.573Z,100.00
2023-10-12T09:05:35.236Z,100.00
2023-10-12T09:08:13.287Z,100.00
2023-10-12T09:10:57.827Z,100.00
2023-10-12T09:13:28.808Z,100.00
2023-10-12T09:15:57.646Z,100.00
2023-10-12T09:18:27.377Z,100.00
2023-10-12T09:21:03.110Z,100.00
2023-10-12T09:23:49.220Z,100.00
2023-10-12T09:26:20.405Z,100.00
2023-10-12T09:28:46.955Z,100.00
2023-10-12T09:31:48.010Z,100.00
2023-10-12T09:34:30.613Z,100.00
2023-10-12T09:36:57.275Z,100.00
2023-10-12T09:39:35.639Z,100.00
2023-10-12T09:42:22.980Z,100.00
2023-10-12T09:45:02.194Z,100.00
2023-10-12T09:47:44.229Z,100.00
2023-10-12T09:50:15.185Z,100.00
2023-10-12T09:52:46.893Z,100.00
2023-10-12T09:55:24.735Z,100.00
2023-10-12T09:57:53.248Z,100.00
2023-10-12T10:00:50.148Z,100.00
2023-10-12T10:03:18.434Z,100.00
2023-10-12T10:05:55.157Z,100.00
2023-10-12T10:08:29.644Z,100.00
2023-10-12T10:10:58.010Z,100.00
2023-10-12T10:13:40.870Z,100.00
2023-10-12T10:16:10.067Z,100.00
2023-10-12T10:18:57.808Z,100.00
2023-10-12T10:21:31.538Z,100.00
2023-10-12T10:23:59.519Z,100.00
2023-10-12T10:26:32.359Z,100.00
2023-10-12T10:29:06.693Z,100.00
2023-10-12T10:31:35.464Z,100.00
2023-10-12T10:34:08.138Z,100.00
2023-10-12T10:36:35.166Z,100.00
2023-10-12T10:39:24.964Z,100.00
2023-10-12T10:41:55.263Z,100.00
2023-10-12T10:44:23.956Z,100.00
2023-10-12T10:46:58.077Z,100.00
2023-10-12T10:49:34.305Z,100.00
2023-10-12T10:52:07.574Z,100.00
2023-10-12T10:54:40.785Z,100.00
2023-10-12T10:57:26.766Z,100.00
2023-10-12T10:59:54.022Z,100.00
2023-10-12T11:02:21.770Z,100.00
2023-10-12T11:04:55.528Z,100.00
2023-10-12T11:07:22.020Z,100.00
2023-10-12T11:09:53.241Z,100.00
2023-10-12T11:12:25.340Z,100.00
2023-10-12T11:15:26.429Z,100.00
2023-10-12T11:18:08.456Z,100.00
2023-10-12T11:20:46.297Z,100.00
2023-10-12T11:23:15.324Z,100.00
2023-10-12T11:25:42.771Z,100.00
2023-10-12T11:28:19.501Z,100.00
2023-10-12T11:30:46.368Z,100.00
2023-10-12T11:33:13.682Z,100.00
2023-10-12T11:35:42.395Z,100.00
2023-10-12T11:38:18.311Z,100.00
2023-10-12T11:43:58.371Z,100.00
2023-10-12T11:46:26.783Z,100.00
2023-10-12T11:49:02.604Z,100.00
2023-10-12T11:51:29.757Z,100.00
2023-10-12T11:53:56.126Z,100.00
2023-10-12T11:56:25.656Z,100.00
2023-10-12T11:58:55.036Z,100.00
2023-10-12T12:01:23.229Z,100.00
2023-10-12T12:03:54.301Z,100.00
2023-10-12T12:06:26.630Z,100.00
2023-10-12T12:08:59.906Z,100.00
2023-10-12T12:11:31.715Z,100.00
2023-10-12T12:13:58.859Z,100.00
2023-10-12T12:16:25.815Z,100.00
2023-10-12T12:18:53.599Z,100.00
2023-10-12T12:21:30.866Z,100.00
2023-10-12T12:24:01.438Z,100.00
2023-10-12T12:26:33.909Z,100.00
2023-10-12T12:29:04.522Z,100.00
2023-10-12T12:31:33.183Z,100.00
2023-10-12T12:34:00.381Z,100.00
2023-10-12T12:36:30.630Z,100.00
2023-10-12T12:39:13.172Z,100.00
2023-10-12T12:41:41.345Z,100.00
2023-10-12T12:44:11.361Z,100.00
2023-10-12T12:46:38.710Z,100.00
2023-10-12T12:49:07.420Z,100.00
2023-10-12T12:51:35.518Z,100.00
2023-10-12T12:54:02.747Z,100.00
2023-10-12T12:56:29.878Z,100.00
2023-10-12T12:58:56.276Z,100.00
2023-10-12T13:01:26.968Z,100.00
2023-10-12T13:03:57.374Z,100.00
2023-10-12T13:06:25.113Z,100.00
2023-10-12T13:08:51.634Z,100.00
2023-10-12T13:11:19.581Z,100.00
2023-10-12T13:13:48.173Z,100.00
2023-10-12T13:16:15.450Z,100.00
2023-10-12T13:18:46.758Z,100.00
2023-10-12T13:21:17.198Z,100.00
2023-10-12T13:23:44.857Z,100.00
2023-10-12T13:26:13.873Z,100.00
2023-10-12T13:28:42.435Z,100.00
2023-10-12T13:31:12.487Z,100.00
2023-10-12T13:33:42.456Z,100.00
2023-10-12T13:36:09.299Z,100.00
2023-10-12T13:38:37.814Z,100.00
2023-10-12T13:41:05.099Z,100.00
2023-10-12T13:43:32.085Z,100.00
2023-10-12T13:45:59.815Z,100.00
2023-10-12T13:48:30.731Z,100.00
2023-10-12T13:51:20.540Z,100.00
2023-10-12T13:53:50.273Z,100.00
2023-10-12T13:56:17.241Z,100.00
2023-10-12T13:58:47.856Z,100.00
2023-10-12T14:01:16.243Z,100.00
2023-10-12T14:03:53.372Z,100.00
2023-10-12T14:06:20.535Z,100.00
2023-10-12T14:08:47.082Z,100.00
2023-10-12T14:11:15.984Z,100.00
2023-10-12T14:13:43.647Z,100.00
2023-10-12T14:16:11.923Z,100.00
2023-10-12T14:18:40.310Z,100.00
2023-10-12T14:21:12.208Z,100.00
2023-10-12T14:23:50.940Z,100.00
2023-10-12T14:26:18.658Z,100.00
2023-10-12T14:28:50.614Z,100.00
2023-10-12T14:31:17.728Z,100.00
2023-10-12T14:33:44.904Z,100.00
2023-10-12T14:36:11.761Z,100.00
2023-10-12T14:38:40.828Z,100.00
2023-10-12T14:41:10.460Z,100.00
2023-10-12T14:43:37.275Z,100.00
2023-10-12T14:46:05.437Z,100.00
2023-10-12T14:48:32.489Z,100.00
2023-10-12T14:51:17.958Z,100.00
2023-10-12T14:53:45.823Z,100.00
2023-10-12T14:56:14.795Z,100.00
2023-10-12T14:58:44.126Z,100.00
2023-10-12T15:01:14.125Z,100.00
2023-10-12T15:03:42.439Z,100.00
2023-10-12T15:06:12.963Z,100.00
2023-10-12T15:08:40.184Z,100.00
2023-10-12T15:11:07.507Z,100.00
2023-10-12T15:13:38.210Z,100.00
2023-10-12T15:16:10.394Z,100.00
2023-10-12T15:18:41.935Z,100.00
2023-10-12T15:23:43.500Z,100.00
2023-10-12T15:26:14.069Z,100.00
2023-10-12T15:28:40.420Z,100.00
2023-10-12T15:31:07.195Z,100.00
2023-10-12T15:33:34.037Z,100.00
2023-10-12T15:36:00.976Z,100.00
2023-10-12T15:38:31.863Z,100.00
2023-10-12T15:41:00.136Z,100.00
2023-10-12T15:43:27.183Z,100.00
2023-10-12T15:45:54.198Z,100.00
2023-10-12T15:48:27.065Z,100.00
2023-10-12T15:50:55.006Z,100.00
2023-10-12T15:53:23.443Z,100.00
2023-10-12T15:55:50.692Z,100.00
2023-10-12T15:58:17.097Z,100.00
2023-10-12T16:00:43.928Z,100.00
2023-10-12T16:03:11.104Z,100.00
2023-10-12T16:05:38.391Z,100.00
2023-10-12T16:08:17.043Z,100.00
2023-10-12T16:10:49.495Z,100.00
2023-10-12T16:13:16.683Z,100.00
2023-10-12T16:15:45.313Z,100.00
2023-10-12T16:18:12.545Z,100.00
2023-10-12T16:20:40.349Z,100.00
2023-10-12T16:23:07.626Z,100.00
2023-10-12T16:25:35.162Z,100.00
2023-10-12T16:28:03.014Z,100.00
2023-10-12T16:30:35.212Z,100.00
2023-10-12T16:33:02.748Z,100.00
2023-10-12T16:35:31.102Z,100.00
2023-10-12T16:37:59.839Z,100.00
2023-10-12T16:40:29.331Z,100.00
2023-10-12T16:42:56.397Z,100.00
2023-10-12T16:45:24.257Z,100.00
2023-10-12T16:47:51.473Z,100.00
2023-10-12T16:50:18.993Z,100.00
2023-10-12T16:52:49.436Z,100.00
2023-10-12T16:55:19.967Z,100.00
2023-10-12T16:57:46.914Z,100.00
2023-10-12T17:00:16.136Z,100.00
2023-10-12T17:02:47.522Z,100.00
2023-10-12T17:05:16.905Z,100.00
2023-10-12T17:07:44.711Z,100.00
2023-10-12T17:10:24.204Z,100.00
2023-10-12T17:12:52.713Z,100.00
2023-10-12T17:15:20.000Z,100.00
2023-10-12T17:17:47.700Z,100.00
2023-10-12T17:20:17.556Z,100.00
2023-10-12T17:22:44.622Z,100.00
2023-10-12T17:25:12.980Z,100.00
2023-10-12T17:27:43.811Z,100.00
2023-10-12T17:30:11.379Z,100.00
2023-10-12T17:32:40.345Z,100.00
2023-10-12T17:35:12.601Z,100.00
2023-10-12T17:37:40.070Z,100.00
2023-10-12T17:40:08.853Z,100.00
2023-10-12T17:42:36.197Z,100.00
2023-10-12T17:45:09.874Z,100.00
2023-10-12T17:47:38.865Z,100.00
2023-10-12T17:50:13.226Z,100.00
2023-10-12T17:52:43.843Z,100.00
2023-10-12T17:55:12.151Z,100.00
2023-10-12T17:57:39.274Z,100.00
2023-10-12T18:00:10.623Z,100.00
2023-10-12T18:02:42.416Z,100.00
2023-10-12T18:05:14.185Z,100.00
2023-10-12T18:07:42.007Z,100.00
2023-10-12T18:10:09.943Z,100.00
2023-10-12T18:12:36.897Z,100.00
2023-10-12T18:15:04.962Z,100.00
2023-10-12T18:17:32.187Z,100.00
2023-10-12T18:20:02.922Z,100.00
2023-10-12T18:22:30.507Z,100.00
2023-10-12T18:24:58.555Z,100.00
2023-10-12T18:27:25.253Z,100.00
2023-10-12T18:29:53.169Z,100.00
2023-10-12T18:32:22.187Z,100.00
2023-10-12T18:34:52.390Z,100.00
2023-10-12T18:37:20.454Z,100.00
2023-10-12T18:39:48.924Z,100.00
2023-10-12T18:42:16.431Z,100.00
2023-10-12T18:44:44.248Z,100.00
2023-10-12T18:47:11.307Z,100.00
2023-10-12T18:49:43.993Z,100.00
2023-10-12T18:52:14.343Z,100.00
2023-10-12T18:54:43.005Z,100.00
2023-10-12T18:57:10.557Z,100.00
2023-10-12T18:59:37.871Z,100.00
2023-10-12T19:02:05.816Z,100.00
2023-10-12T19:04:32.701Z,100.00
2023-10-12T19:06:59.870Z,100.00
2023-10-12T19:09:27.784Z,100.00
2023-10-12T19:11:55.162Z,100.00
2023-10-12T19:14:22.464Z,100.00
2023-10-12T19:16:52.873Z,100.00
2023-10-12T19:19:22.419Z,100.00
2023-10-12T19:21:50.200Z,100.00
2023-10-12T19:24:19.094Z,100.00
2023-10-12T19:26:46.958Z,100.00
2023-10-12T19:29:13.660Z,100.00
2023-10-12T19:31:44.252Z,100.00
2023-10-12T19:34:11.706Z,100.00
2023-10-12T19:36:38.938Z,100.00
2023-10-12T19:39:08.350Z,100.00
2023-10-12T19:41:36.254Z,100.00
2023-10-12T19:44:09.377Z,100.00
2023-10-12T19:46:39.610Z,100.00
2023-10-12T19:49:09.010Z,100.00
2023-10-12T19:51:35.781Z,100.00
2023-10-12T19:54:03.928Z,100.00
2023-10-12T19:56:32.022Z,100.00
2023-10-12T19:58:59.268Z,100.00
2023-10-12T20:01:26.619Z,100.00
2023-10-12T20:03:56.085Z,100.00
2023-10-12T20:06:23.429Z,100.00
2023-10-12T20:08:50.667Z,100.00
2023-10-12T20:11:18.127Z,100.00
2023-10-12T20:13:48.379Z,100.00
2023-10-12T20:16:20.608Z,100.00
2023-10-12T20:18:48.195Z,100.00
2023-10-12T20:21:20.232Z,100.00
2023-10-12T20:23:48.348Z,100.00
2023-10-12T20:26:15.372Z,100.00
2023-10-12T20:28:42.338Z,100.00
2023-10-12T20:31:10.713Z,100.00
2023-10-12T20:33:39.656Z,100.00
2023-10-12T20:36:08.133Z,100.00
2023-10-12T20:38:35.721Z,100.00
2023-10-12T20:41:04.744Z,100.00
2023-10-12T20:43:34.846Z,100.00
2023-10-12T20:46:08.504Z,100.00
2023-10-12T20:48:38.182Z,100.00
2023-10-12T20:51:05.156Z,100.00
2023-10-12T20:53:36.181Z,100.00
2023-10-12T20:56:08.529Z,100.00
2023-10-12T20:58:43.174Z,100.00
2023-10-12T21:01:24.728Z,100.00
2023-10-12T21:03:55.076Z,100.00
2023-10-12T21:06:28.523Z,100.00
2023-10-12T21:09:13.005Z,100.00
2023-10-12T21:11:46.196Z,100.00
2023-10-12T21:14:21.397Z,100.00
2023-10-12T21:16:52.818Z,100.00
2023-10-12T21:19:21.048Z,100.00
2023-10-12T21:21:50.926Z,100.00
2023-10-12T21:24:18.665Z,100.00
2023-10-12T21:26:46.430Z,100.00
2023-10-12T21:29:18.629Z,100.00
2023-10-12T21:31:51.303Z,100.00
2023-10-12T21:34:27.567Z,100.00
2023-10-12T21:36:54.225Z,100.00
2023-10-12T21:39:41.993Z,100.00
2023-10-12T21:42:12.576Z,100.00
2023-10-12T21:44:41.887Z,100.00
2023-10-12T21:47:10.938Z,100.00
2023-10-12T21:49:38.661Z,100.00
2023-10-12T21:52:06.157Z,100.00
2023-10-12T21:54:37.060Z,100.00
2023-10-12T21:57:09.755Z,100.00
2023-10-12T21:59:36.914Z,100.00
2023-10-12T22:02:15.450Z,100.00
2023-10-12T22:05:01.797Z,100.00
2023-10-12T22:07:46.802Z,100.00
2023-10-12T22:10:14.208Z,100.00
2023-10-12T22:12:47.119Z,100.00
2023-10-12T22:15:24.673Z,100.00
2023-10-12T22:18:00.969Z,100.00
2023-10-12T22:20:29.136Z,100.00
2023-10-12T22:22:58.883Z,100.00
2023-10-12T22:25:28.029Z,100.00
2023-10-12T22:27:54.255Z,100.00
2023-10-12T22:30:20.965Z,100.00
2023-10-12T22:32:47.275Z,100.00
2023-10-12T22:35:17.491Z,100.00
2023-10-12T22:37:45.506Z,100.00
2023-10-12T22:40:14.822Z,100.00
2023-10-12T22:42:42.278Z,100.00
2023-10-12T22:45:20.945Z,100.00
2023-10-12T22:47:47.412Z,100.00
2023-10-12T22:50:16.083Z,100.00
2023-10-12T22:52:42.807Z,100.00
2023-10-12T22:55:11.366Z,100.00
2023-10-12T22:57:38.148Z,100.00
2023-10-12T23:00:17.734Z,100.00
2023-10-12T23:02:44.279Z,100.00
2023-10-12T23:05:15.389Z,100.00
2023-10-12T23:07:43.048Z,100.00
2023-10-12T23:10:18.992Z,100.00
2023-10-12T23:12:49.748Z,100.00
2023-10-12T23:15:16.875Z,100.00
2023-10-12T23:17:47.015Z,100.00
2023-10-12T23:20:36.316Z,100.00
2023-10-12T23:23:09.994Z,100.00
2023-10-12T23:25:56.967Z,100.00
2023-10-12T23:28:23.722Z,100.00
2023-10-12T23:30:54.814Z,100.00
2023-10-12T23:33:23.370Z,100.00
2023-10-12T23:35:52.600Z,100.00
2023-10-12T23:38:38.455Z,100.00
2023-10-12T23:41:15.697Z,100.00
2023-10-12T23:43:55.203Z,100.00
2023-10-12T23:46:23.845Z,100.00
2023-10-12T23:48:58.067Z,100.00
2023-10-12T23:51:28.610Z,100.00
2023-10-12T23:54:26.346Z,100.00
2023-10-12T23:57:03.020Z,100.00
2023-10-12T23:59:30.687Z,100.00
